Latest Weather Observations for Cape Jaffa

IDS60801

Issued at 8:31 am CDT Friday 24 November 2017 (issued every 30 minutes, with the page automatically refreshed every 10 minutes)

About weather observations | Map of weather stations | Latest weather observations for SA | Other Formats
Station Details ID: 026095 Name: THE LIMESTONE Lat: -36.97 Lon: 139.72 Height: 17.0 m
Data from the previous 72 hours. | See also: Recent months at Cape Jaffa
Date/Time
CDT
Temp
°C
App
Temp
°C
Dew
Point
°C
Rel
Hum
%
Delta-T
°C
Wind Press
QNH
hPa
Press
MSL
hPa
Rain since
9am
mm
Dir  Spd
km/h
Gust
km/h
Spd
kts
Gust
kts
24/08:30am 17.7 16.9 16.0 90 1.0 SSW 15 19 8 10 1013.5 1013.4 0.0
24/08:00am 17.5 17.4 16.0 91 0.9 SSW 11 15 6 8 1013.5 1013.4 0.0
24/07:30am 17.2 17.8 15.9 92 0.8 SSE 7 9 4 5 1013.2 1013.1 0.0
24/07:00am 16.9 16.7 15.6 92 0.8 SSE 11 15 6 8 1012.8 1012.7 0.0
24/06:30am 16.9 17.4 15.6 92 0.8 S 7 13 4 7 1012.6 1012.5 0.0
24/06:00am 16.5 16.1 15.2 92 0.8 S 11 15 6 8 1012.2 1012.1 0.0
24/05:30am 16.4 16.4 15.3 93 0.6 S 9 17 5 9 1012.0 1011.9 0.0
24/05:00am 16.5 15.0 15.2 92 0.8 SSW 17 22 9 12 1011.5 1011.4 0.0
24/04:30am 17.0 16.0 15.7 92 0.8 SSW 15 20 8 11 1011.3 1011.2 0.0
24/04:00am 17.0 16.8 15.7 92 0.8 SSW 11 15 6 8 1011.1 1011.0 0.0
24/03:30am 16.6 17.5 15.1 91 0.9 SSW 4 7 2 4 1011.2 1011.1 0.0
24/03:00am 17.0 17.6 15.3 90 1.0 SSW 6 7 3 4 1011.0 1010.9 0.0
24/02:30am 17.2 17.6 15.4 89 1.1 SW 7 9 4 5 1010.8 1010.7 0.0
24/02:00am 16.9 17.0 14.4 85 1.4 SSW 7 11 4 6 1010.9 1010.8 0.0
24/01:30am 16.1 15.8 13.2 83 1.6 SSW 7 9 4 5 1011.1 1011.0 0.0
24/01:00am 16.4 16.3 13.3 82 1.7 E 6 7 3 4 1011.5 1011.4 0.0
24/12:30am 17.1 17.0 14.0 82 1.8 SSE 7 9 4 5 1011.3 1011.2 0.0
24/12:00am 17.0 17.0 14.1 83 1.7 SE 7 9 4 5 1011.4 1011.3 0.0
 
Date/Time
CDT
Temp
°C
App
Temp
°C
Dew
Point
°C
Rel
Hum
%
Delta-T
°C
Wind Press
QNH
hPa
Press
MSL
hPa
Rain since
9am
mm
Dir  Spd
km/h
Gust
km/h
Spd
kts
Gust
kts
23/11:30pm 17.1 17.3 14.2 83 1.7 S 6 9 3 5 1011.5 1011.4 0.0
23/11:00pm 16.9 16.6 13.4 80 2.0 SSW 7 11 4 6 1011.5 1011.4 0.0
23/10:30pm 17.5 17.2 13.4 77 2.3 SSE 7 11 4 6 1011.6 1011.5 0.0
23/10:00pm 17.4 16.1 13.7 79 2.1 SSE 13 17 7 9 1011.6 1011.5 0.0
23/09:30pm 17.9 16.4 14.2 79 2.1 S 15 19 8 10 1011.1 1011.0 0.0
23/09:00pm 18.1 16.4 14.6 80 2.0 S 17 19 9 10 1010.8 1010.7 0.0
23/08:30pm 18.4 17.4 15.5 83 1.7 SSW 15 17 8 9 1010.8 1010.7 0.0
23/08:00pm 19.0 17.6 15.5 80 2.1 SSW 17 22 9 12 1010.5 1010.4 0.0
23/07:30pm 19.8 19.1 15.4 76 2.6 S 13 19 7 10 1010.7 1010.6 0.0
23/07:00pm 20.2 19.3 14.8 71 3.2 SW 13 17 7 9 1010.7 1010.6 0.0
23/06:30pm 21.9 20.5 14.5 63 4.4 SSW 15 19 8 10 1009.9 1009.8 0.0
23/06:00pm 22.4 21.2 14.0 59 4.9 SSW 13 15 7 8 1010.1 1010.0 0.0
23/05:30pm 22.7 20.6 13.5 56 5.3 SW 17 22 9 12 1009.7 1009.6 0.0
23/05:00pm 22.1 20.0 13.7 59 4.9 WSW 17 20 9 11 1009.9 1009.8 0.0
23/04:30pm 21.8 19.6 14.4 63 4.3 SW 19 22 10 12 1009.7 1009.6 0.0
23/04:00pm 22.5 19.1 13.8 58 5.1 SW 24 28 13 15 1009.3 1009.2 0.0
23/03:30pm 22.9 20.3 13.9 57 5.3 WSW 20 24 11 13 1009.9 1009.8 0.0
23/03:00pm 22.9 19.9 14.7 60 4.9 WSW 24 28 13 15 1010.2 1010.1 0.0
23/02:30pm 23.0 20.1 15.1 61 4.7 WSW 24 30 13 16 1010.4 1010.3 0.0
23/02:00pm 22.9 19.8 15.5 63 4.4 WSW 26 37 14 20 1010.6 1010.5 0.0
23/01:30pm 22.7 18.9 15.8 65 4.2 W 30 37 16 20 1010.6 1010.5 0.0
23/01:18pm 22.7 19.5 16.3 67 3.9 W 28 39 15 21 1010.4 1010.3 0.0
23/01:00pm 24.4 24.0 16.1 60 5.1 SW 13 19 7 10 1010.3 1010.2 0.0
23/12:30pm 24.0 22.5 15.2 58 5.3 SW 17 20 9 11 1009.7 1009.6 0.0
23/12:00pm 27.2 26.1 14.2 44 7.8 SSE 13 22 7 12 1009.3 1009.2 0.0
23/11:30am 24.9 23.3 16.1 58 5.4 S 19 24 10 13 1009.0 1008.9 0.0
23/11:00am 24.1 22.2 15.1 57 5.4 S 19 22 10 12 1009.2 1009.1 0.0
23/10:30am 23.2 22.4 15.0 60 4.9 S 13 17 7 9 1009.6 1009.5 0.0
23/10:00am 26.4 24.6 10.9 38 8.7 S 11 15 6 8 1009.9 1009.8 0.0
23/09:30am 26.8 25.4 12.1 40 8.5 S 11 15 6 8 1009.9 1009.8 0.0
23/09:00am 24.4 24.5 14.5 54 5.9 S 7 15 4 8 1010.2 1010.1 0.0
23/08:30am 23.6 24.5 15.1 59 5.1 S 4 6 2 3 1010.1 1010.0 0.0
23/08:00am 21.9 22.7 14.8 64 4.2 S 4 6 2 3 1010.1 1010.0 0.0
23/07:30am 20.3 20.6 14.9 71 3.2 S 7 9 4 5 1009.9 1009.8 0.0
23/07:00am 18.7 19.1 15.2 80 2.1 SSW 7 9 4 5 1009.8 1009.7 0.0
23/06:30am 17.4 17.9 14.9 85 1.5 SW 6 7 3 4 1009.7 1009.6 0.0
23/06:00am 17.0 16.7 14.3 84 1.5 SW 9 13 5 7 1009.2 1009.1 0.0
23/05:30am 17.6 16.6 14.5 82 1.8 SW 13 17 7 9 1008.8 1008.7 0.0
23/05:00am 17.4 16.1 14.7 84 1.6 SW 15 17 8 9 1008.5 1008.4 0.0
23/04:30am 17.4 15.9 14.3 82 1.8 SW 15 20 8 11 1008.2 1008.1 0.0
23/04:00am 17.6 16.1 14.3 81 1.9 SW 15 19 8 10 1008.3 1008.2 0.0
23/03:30am 17.8 15.9 14.3 80 2.0 SW 17 20 9 11 1008.5 1008.4 0.0
23/03:00am 18.1 15.6 14.2 78 2.2 SW 20 26 11 14 1008.3 1008.2 0.0
23/02:30am 18.6 16.0 13.9 74 2.7 WSW 20 26 11 14 1008.6 1008.5 0.0
23/02:00am 18.9 14.5 14.2 74 2.7 WSW 30 37 16 20 1008.4 1008.3 0.0
23/01:30am 17.9 13.7 14.6 81 1.9 WSW 30 39 16 21 1008.8 1008.7 0.0
23/01:00am 18.4 14.9 14.5 78 2.3 WSW 26 33 14 18 1008.9 1008.8 0.0
23/12:30am 20.6 18.0 13.1 62 4.3 SW 19 24 10 13 1008.7 1008.6 0.0
23/12:00am 20.4 17.0 12.6 61 4.4 WSW 22 26 12 14 1008.6 1008.5 0.0
 
Date/Time
CDT
Temp
°C
App
Temp
°C
Dew
Point
°C
Rel
Hum
%
Delta-T
°C
Wind Press
QNH
hPa
Press
MSL
hPa
Rain since
9am
mm
Dir  Spd
km/h
Gust
km/h
Spd
kts
Gust
kts
22/11:30pm 19.6 15.4 13.5 68 3.5 WSW 28 35 15 19 1008.2 1008.1 0.0
22/11:00pm 19.1 16.9 14.4 74 2.7 WSW 19 22 10 12 1008.3 1008.2 0.0
22/10:30pm 19.8 17.1 14.6 72 3.0 SSW 22 28 12 15 1008.3 1008.2 0.0
22/10:00pm 19.6 16.8 14.4 72 3.0 SSW 22 28 12 15 1008.7 1008.6 0.0
22/09:30pm 19.7 17.7 13.9 69 3.3 SW 17 20 9 11 1009.2 1009.1 0.0
22/09:00pm 19.5 17.6 14.3 72 3.0 SW 17 24 9 13 1009.4 1009.3 0.0
22/08:30pm 20.0 17.1 13.9 68 3.5 SSW 22 28 12 15 1008.7 1008.6 0.0
22/08:00pm 20.5 17.8 13.5 64 4.0 SSW 20 24 11 13 1008.8 1008.7 0.0
22/07:30pm 22.1 19.5 13.2 57 5.1 SSW 19 24 10 13 1008.6 1008.5 0.0
22/07:00pm 22.7 18.9 12.3 52 5.9 S 24 32 13 17 1008.4 1008.3 0.0
22/06:30pm 24.1 19.2 11.4 45 7.2 S 28 33 15 18 1008.1 1008.0 0.0
22/06:00pm 25.0 21.3 12.6 46 7.2 SSW 24 32 13 17 1007.9 1007.8 0.0
22/05:30pm 25.7 21.2 11.5 41 8.1 SSW 26 33 14 18 1008.0 1007.9 0.0
22/05:00pm 27.1 22.5 9.5 33 9.7 SW 24 30 13 16 1008.2 1008.1 0.0
22/04:30pm 29.1 25.4 9.3 29 11.0 SW 19 24 10 13 1008.3 1008.2 0.0
22/04:00pm 28.1 24.8 10.8 34 9.8 SW 19 24 10 13 1008.7 1008.6 0.0
22/03:30pm 27.3 24.3 12.5 40 8.6 WSW 20 26 11 14 1009.0 1008.9 0.0
22/03:00pm 27.2 23.1 11.3 37 9.1 WSW 24 35 13 19 1009.4 1009.3 0.0
22/02:51pm 29.2 25.3 10.8 32 10.5 W 22 32 12 17 1009.5 1009.4 0.0
22/02:30pm 34.6 30.3 5.1 16 15.8 NNW 17 22 9 12 1009.5 1009.4 0.0
22/02:00pm 34.0 29.4 5.5 17 15.3 N 19 26 10 14 1009.9 1009.8 0.0
22/01:30pm 33.7 29.2 6.9 19 14.7 N 20 24 11 13 1010.3 1010.2 0.0
22/01:00pm 33.5 28.9 8.2 21 14.1 N 22 28 12 15 1010.8 1010.7 0.0
22/12:30pm 32.2 28.0 8.4 23 13.3 N 20 28 11 15 1011.2 1011.1 0.0
22/12:00pm 32.3 28.1 9.8 25 12.8 N 22 30 12 16 1011.5 1011.4 0.0
22/11:30am 31.7 27.7 10.4 27 12.2 N 22 28 12 15 1011.8 1011.7 0.0
22/11:00am 30.4 26.2 9.8 28 11.6 N 22 30 12 16 1012.0 1011.9 0.0
22/10:30am 30.2 25.4 10.2 29 11.4 NNE 26 33 14 18 1012.0 1011.9 0.0
22/10:00am 29.6 23.7 9.2 28 11.4 NNE 30 37 16 20 1012.0 1011.9 0.0
22/09:30am 29.3 23.7 8.9 28 11.3 NNE 28 37 15 20 1012.2 1012.1 0.0
22/09:00am 28.0 21.5 8.3 29 10.7 NNE 32 43 17 23 1012.2 1012.1 0.0
22/08:30am 26.7 20.1 7.7 30 10.2 NE 32 46 17 25 1012.3 1012.2 0.0
22/08:00am 25.6 18.9 7.2 31 9.7 NE 32 43 17 23 1012.2 1012.1 0.0
22/07:30am 24.4 18.8 7.1 33 9.0 NE 26 35 14 19 1012.0 1011.9 0.0
22/07:00am 22.6 18.0 6.4 35 8.3 NE 20 33 11 18 1011.9 1011.8 0.0
22/06:30am 20.4 15.9 7.1 42 6.8 NE 20 24 11 13 1011.7 1011.6 0.0
22/06:00am 18.6 14.3 6.8 46 5.9 ENE 19 22 10 12 1011.5 1011.4 0.0
22/05:30am 17.8 13.6 7.5 51 5.2 ENE 19 24 10 13 1011.3 1011.2 0.0
22/05:00am 16.5 12.6 8.5 59 4.1 ENE 19 20 10 11 1011.1 1011.0 0.0
22/04:30am 16.8 13.2 8.5 58 4.2 ENE 17 19 9 10 1010.9 1010.8 0.0
22/04:00am 17.4 13.5 8.5 56 4.6 ENE 19 20 10 11 1010.9 1010.8 0.0
22/03:30am 17.9 14.0 8.5 54 4.8 ENE 19 22 10 12 1010.9 1010.8 0.0
22/03:00am 18.0 14.5 8.6 54 4.9 ENE 17 20 9 11 1011.1 1011.0 0.0
22/02:30am 18.2 14.6 8.5 53 5.0 ENE 17 19 9 10 1011.2 1011.1 0.0
22/02:00am 18.8 15.4 9.0 53 5.1 ENE 17 19 9 10 1011.4 1011.3 0.0
22/01:30am 19.0 15.4 9.8 55 4.9 ENE 19 20 10 11 1011.6 1011.5 0.0
22/01:00am 19.7 16.5 9.9 53 5.2 ENE 17 20 9 11 1011.8 1011.7 0.0
22/12:30am 21.5 17.9 10.6 50 6.0 E 20 24 11 13 1011.9 1011.8 0.0
22/12:00am 21.2 18.7 11.2 53 5.5 E 15 19 8 10 1012.1 1012.0 0.0
 
Date/Time
CDT
Temp
°C
App
Temp
°C
Dew
Point
°C
Rel
Hum
%
Delta-T
°C
Wind Press
QNH
hPa
Press
MSL
hPa
Rain since
9am
mm
Dir  Spd
km/h
Gust
km/h
Spd
kts
Gust
kts
21/11:30pm 22.5 20.4 11.3 49 6.2 ESE 13 17 7 9 1012.3 1012.2 0.0
21/11:00pm 23.4 21.0 11.5 47 6.7 ESE 15 19 8 10 1012.5 1012.4 0.0
21/10:30pm 23.2 21.4 10.9 46 6.8 ESE 11 17 6 9 1012.8 1012.7 0.0
21/10:00pm 24.3 21.8 10.9 43 7.5 SE 15 20 8 11 1013.0 1012.9 0.0
21/09:30pm 24.0 22.4 11.7 46 7.0 SE 11 17 6 9 1013.1 1013.0 0.0
21/09:00pm 24.3 23.0 12.6 48 6.7 SE 11 17 6 9 1013.0 1012.9 0.0
21/08:30pm 26.0 23.9 12.5 43 7.8 SSE 15 19 8 10 1012.8 1012.7 0.0
21/08:00pm 25.9 25.0 12.7 44 7.7 SSE 9 13 5 7 1012.9 1012.8 0.0
21/07:30pm 28.3 26.4 10.5 33 10.1 S 11 17 6 9 1012.7 1012.6 0.0
21/07:00pm 29.4 27.6 11.0 32 10.5 S 11 17 6 9 1012.7 1012.6 0.0
21/06:30pm 30.4 27.4 9.3 27 11.8 SSW 15 19 8 10 1012.5 1012.4 0.0
21/06:00pm 30.2 26.9 9.7 28 11.6 SSW 17 20 9 11 1012.5 1012.4 0.0
21/05:30pm 31.3 28.5 10.1 27 12.1 SW 15 19 8 10 1012.6 1012.5 0.0
21/05:00pm 32.8 29.7 8.9 23 13.5 WSW 15 19 8 10 1012.8 1012.7 0.0
21/04:30pm 33.7 31.0 10.3 24 13.5 W 15 19 8 10 1013.0 1012.9 0.0
21/04:00pm 33.0 30.9 9.7 24 13.3 NW 11 17 6 9 1013.3 1013.2 0.0
21/03:30pm 33.2 31.1 9.9 24 13.4 NW 11 17 6 9 1013.5 1013.4 0.0
21/03:00pm 33.3 30.9 10.0 24 13.4 NNW 13 20 7 11 1013.8 1013.7 0.0
21/02:30pm 33.7 31.5 10.9 25 13.3 NNW 13 19 7 10 1014.1 1014.0 0.0
21/02:00pm 33.0 30.7 10.4 25 13.0 NNW 13 17 7 9 1014.5 1014.4 0.0
21/01:30pm 32.6 30.0 10.6 26 12.7 NNW 15 20 8 11 1014.9 1014.8 0.0
21/01:00pm 31.8 28.8 10.5 27 12.2 N 17 20 9 11 1015.3 1015.2 0.0
21/12:30pm 32.4 28.9 11.0 27 12.4 N 20 26 11 14 1015.5 1015.4 0.0
21/12:00pm 32.2 29.3 12.9 31 11.5 NNE 20 28 11 15 1015.8 1015.7 0.0
21/11:30am 30.5 26.7 11.0 30 11.2 NNE 22 30 12 16 1015.9 1015.8 0.0
21/11:00am 29.5 25.3 11.1 32 10.6 NNE 24 30 13 16 1016.0 1015.9 0.0
21/10:30am 29.3 25.3 10.4 31 10.7 NNE 22 33 12 18 1016.1 1016.0 0.0
21/10:00am 29.2 25.1 11.3 33 10.3 NNE 24 33 13 18 1016.1 1016.0 0.0
21/09:30am 27.4 22.9 10.2 34 9.6 NNE 24 33 13 18 1016.2 1016.1 0.0
21/09:00am 26.2 21.3 10.0 36 9.0 NE 26 33 14 18 1016.3 1016.2 0.0

Other Formats:

Comma delimited format used in spreadsheet applications
http://www.bom.gov.au/fwo/IDS60801/IDS60801.94813.axf

JavaScript Object Notation format (JSON) in row-major order
http://www.bom.gov.au/fwo/IDS60801/IDS60801.94813.json